Time;durP1;ratioP1;P1;durP2;ratioP2;P2;SDS_P1;SDS_P2;PMS_P1;PMS_P2;Temp;Humidity;BMP_temperature;BMP_pressure;BME280_temperature;BME280_humidity;BME280_pressure;Samples;Min_cycle;Max_cycle;Signal;HPM_P1;HPM_P2
2023/03/16 00:01:16;;;;;;;5.28;1.50;;;;;;;;;;5031716;28;20104;-59
2023/03/16 00:03:42;;;;;;;2.65;1.25;;;;;;;;;;5031979;28;20482;-58
2023/03/16 00:06:08;;;;;;;3.25;1.27;;;;;;;;;;5032062;28;20033;-58
2023/03/16 00:08:34;;;;;;;2.58;1.23;;;;;;;;;;5031086;28;20403;-58
2023/03/16 00:11:01;;;;;;;2.85;1.30;;;;;;;;;;5031630;28;20041;-58
2023/03/16 00:13:28;;;;;;;2.80;1.17;;;;;;;;;;5031398;28;20025;-58
2023/03/16 00:16:03;;;;;;;2.85;1.65;;;;;;;;;;5031115;28;20478;-58
2023/03/16 00:18:29;;;;;;;2.10;1.00;;;;;;;;;;5031131;28;20056;-57
2023/03/16 00:21:00;;;;;;;2.42;1.40;;;;;;;;;;5031606;28;20070;-58
2023/03/16 00:23:27;;;;;;;2.92;1.50;;;;;;;;;;5031186;28;20021;-58
2023/03/16 00:25:57;;;;;;;3.75;1.33;;;;;;;;;;5031526;28;20463;-61
2023/03/16 00:28:23;;;;;;;3.05;1.85;;;;;;;;;;5031202;28;20029;-60
2023/03/16 00:30:50;;;;;;;3.45;1.30;;;;;;;;;;5030892;28;20025;-61
2023/03/16 00:33:16;;;;;;;2.58;1.30;;;;;;;;;;5031150;28;20142;-60
2023/03/16 00:35:49;;;;;;;1.83;1.00;;;;;;;;;;5031587;28;20076;-58
2023/03/16 00:38:19;;;;;;;2.88;1.30;;;;;;;;;;5030944;28;20034;-58
2023/03/16 00:40:46;;;;;;;3.22;1.50;;;;;;;;;;5031211;28;20144;-60
2023/03/16 00:43:12;;;;;;;2.83;1.25;;;;;;;;;;5031493;28;20033;-58
2023/03/16 00:45:38;;;;;;;2.92;1.48;;;;;;;;;;5030503;28;20823;-58
2023/03/16 00:48:04;;;;;;;2.50;1.33;;;;;;;;;;5031075;28;20029;-58
2023/03/16 00:50:30;;;;;;;2.03;0.90;;;;;;;;;;5030928;28;20121;-59
2023/03/16 00:52:56;;;;;;;2.53;1.30;;;;;;;;;;5031033;28;20021;-58
2023/03/16 00:55:22;;;;;;;3.90;1.30;;;;;;;;;;5030583;28;20387;-58
2023/03/16 00:57:48;;;;;;;3.03;1.33;;;;;;;;;;5030871;28;20390;-59
2023/03/16 01:00:15;;;;;;;2.08;1.05;;;;;;;;;;5030638;28;20105;-58
2023/03/16 01:02:44;;;;;;;2.20;1.38;;;;;;;;;;5031157;28;20022;-58
2023/03/16 01:05:11;;;;;;;2.08;1.20;;;;;;;;;;5031113;28;20433;-58
2023/03/16 01:07:37;;;;;;;2.05;1.27;;;;;;;;;;5030684;28;20371;-59
2023/03/16 01:10:03;;;;;;;2.63;1.25;;;;;;;;;;5030858;28;20037;-59
2023/03/16 01:12:29;;;;;;;2.65;1.48;;;;;;;;;;5030568;28;20120;-58
2023/03/16 01:14:55;;;;;;;2.28;1.15;;;;;;;;;;5030257;28;20471;-58
2023/03/16 01:17:21;;;;;;;2.70;1.27;;;;;;;;;;5030635;28;20022;-58
2023/03/16 01:19:47;;;;;;;3.53;1.27;;;;;;;;;;5030932;28;20025;-58
2023/03/16 01:22:14;;;;;;;2.45;1.25;;;;;;;;;;5031169;28;20104;-58
2023/03/16 01:24:40;;;;;;;1.90;1.02;;;;;;;;;;5030960;28;20018;-59
2023/03/16 01:27:07;;;;;;;1.63;1.05;;;;;;;;;;5030646;28;20030;-58
2023/03/16 01:29:33;;;;;;;3.70;1.27;;;;;;;;;;5030041;28;20032;-58
2023/03/16 01:31:59;;;;;;;2.47;1.48;;;;;;;;;;5030731;28;20028;-58
2023/03/16 01:34:25;;;;;;;2.45;1.23;;;;;;;;;;5030496;28;20033;-58
2023/03/16 01:36:51;;;;;;;2.70;1.05;;;;;;;;;;5030661;28;20523;-58
2023/03/16 01:39:17;;;;;;;2.70;1.30;;;;;;;;;;5030381;28;20033;-58
2023/03/16 01:41:44;;;;;;;2.65;1.17;;;;;;;;;;5030866;28;20227;-58
2023/03/16 01:44:14;;;;;;;5.57;1.48;;;;;;;;;;5030636;28;20109;-58
2023/03/16 01:46:43;;;;;;;2.90;1.40;;;;;;;;;;5030844;28;20034;-58
2023/03/16 01:49:14;;;;;;;2.95;1.30;;;;;;;;;;5030547;28;20079;-58
2023/03/16 01:51:50;;;;;;;4.18;1.42;;;;;;;;;;5030508;28;20490;-59
2023/03/16 01:54:25;;;;;;;2.55;1.40;;;;;;;;;;5030067;28;20063;-59
2023/03/16 01:56:57;;;;;;;2.33;1.20;;;;;;;;;;5030593;28;20088;-59
2023/03/16 01:59:28;;;;;;;2.35;1.17;;;;;;;;;;5030287;28;20021;-58
2023/03/16 02:01:54;;;;;;;4.20;1.10;;;;;;;;;;5030534;28;20026;-58
2023/03/16 02:04:29;;;;;;;2.33;1.05;;;;;;;;;;5030204;28;20018;-58
2023/03/16 02:06:56;;;;;;;3.55;1.20;;;;;;;;;;5029929;28;20031;-58
2023/03/16 02:09:23;;;;;;;2.47;1.35;;;;;;;;;;5029994;28;20055;-60
2023/03/16 02:11:50;;;;;;;2.42;1.00;;;;;;;;;;5030046;28;20029;-58
2023/03/16 02:14:15;;;;;;;2.60;1.45;;;;;;;;;;5030094;28;20029;-58
2023/03/16 02:16:41;;;;;;;2.63;1.63;;;;;;;;;;5030620;28;20025;-58
2023/03/16 02:19:11;;;;;;;2.03;1.15;;;;;;;;;;5033503;28;20036;-60
2023/03/16 02:21:45;;;;;;;3.80;1.40;;;;;;;;;;5033560;28;20030;-60
2023/03/16 02:24:11;;;;;;;2.88;1.20;;;;;;;;;;5034165;28;20498;-60
2023/03/16 02:26:44;;;;;;;2.40;1.27;;;;;;;;;;5033202;28;20033;-61
2023/03/16 02:29:29;;;;;;;2.00;1.00;;;;;;;;;;5033947;28;20087;-59
2023/03/16 02:31:55;;;;;;;3.63;1.20;;;;;;;;;;5033587;28;20029;-60
2023/03/16 02:34:22;;;;;;;3.00;1.23;;;;;;;;;;5033268;28;20382;-60
2023/03/16 02:36:51;;;;;;;2.17;1.13;;;;;;;;;;5033603;28;20033;-60
2023/03/16 02:39:17;;;;;;;1.98;1.05;;;;;;;;;;5033241;28;20025;-58
2023/03/16 02:41:43;;;;;;;1.95;0.85;;;;;;;;;;5033099;28;20036;-60
2023/03/16 02:44:17;;;;;;;1.95;1.02;;;;;;;;;;5033264;28;20025;-60
2023/03/16 02:46:44;;;;;;;3.92;2.22;;;;;;;;;;5033683;28;20022;-60
2023/03/16 02:49:24;;;;;;;1.55;0.98;;;;;;;;;;5033669;28;20470;-60
2023/03/16 02:51:50;;;;;;;2.13;1.10;;;;;;;;;;5033373;28;20091;-60
2023/03/16 02:54:17;;;;;;;1.42;0.80;;;;;;;;;;5033019;28;20018;-60
2023/03/16 02:56:43;;;;;;;2.95;1.30;;;;;;;;;;5033136;28;20041;-60
2023/03/16 02:59:09;;;;;;;2.65;1.00;;;;;;;;;;5033112;28;20048;-60
2023/03/16 03:01:35;;;;;;;3.13;1.20;;;;;;;;;;5032847;28;20037;-60
2023/03/16 03:04:02;;;;;;;2.05;1.02;;;;;;;;;;5033090;28;20079;-60
2023/03/16 03:06:28;;;;;;;2.83;1.42;;;;;;;;;;5032804;28;20030;-60
2023/03/16 03:08:54;;;;;;;2.67;1.17;;;;;;;;;;5032873;28;20037;-60
2023/03/16 03:11:20;;;;;;;3.90;1.10;;;;;;;;;;5032233;28;20025;-60
2023/03/16 03:13:46;;;;;;;2.65;1.25;;;;;;;;;;5032907;28;20418;-60
2023/03/16 03:16:12;;;;;;;2.28;1.08;;;;;;;;;;5033102;28;20033;-60
2023/03/16 03:18:38;;;;;;;1.38;1.00;;;;;;;;;;5032731;28;20025;-60
2023/03/16 03:21:05;;;;;;;1.58;1.00;;;;;;;;;;5032703;28;20087;-60
2023/03/16 03:23:31;;;;;;;3.95;1.10;;;;;;;;;;5031123;28;20064;-60
2023/03/16 03:25:57;;;;;;;2.42;1.10;;;;;;;;;;5032143;28;20030;-60
2023/03/16 03:28:23;;;;;;;2.58;1.00;;;;;;;;;;5031891;28;20026;-60
2023/03/16 03:30:50;;;;;;;2.25;1.30;;;;;;;;;;5031989;28;20029;-60
2023/03/16 03:33:16;;;;;;;2.22;1.10;;;;;;;;;;5032091;28;20028;-60
2023/03/16 03:35:42;;;;;;;1.73;0.90;;;;;;;;;;5032661;28;20148;-60
2023/03/16 03:38:08;;;;;;;2.83;1.15;;;;;;;;;;5032357;28;20040;-60
2023/03/16 03:40:34;;;;;;;2.33;1.17;;;;;;;;;;5032239;28;20757;-59
2023/03/16 03:43:00;;;;;;;3.03;1.10;;;;;;;;;;5032372;28;20029;-57
2023/03/16 03:45:26;;;;;;;2.95;1.23;;;;;;;;;;5032099;28;20386;-58
2023/03/16 03:47:54;;;;;;;3.10;1.10;;;;;;;;;;5032177;28;20057;-58
2023/03/16 03:50:21;;;;;;;3.35;1.67;;;;;;;;;;5031644;28;20560;-58
2023/03/16 03:52:47;;;;;;;2.00;1.10;;;;;;;;;;5032101;28;20021;-58
2023/03/16 03:55:13;;;;;;;3.20;1.45;;;;;;;;;;5031800;28;20041;-58
2023/03/16 03:57:39;;;;;;;2.53;1.30;;;;;;;;;;5031895;28;20359;-58
2023/03/16 04:00:12;;;;;;;2.15;1.10;;;;;;;;;;5031694;28;20091;-58
2023/03/16 04:02:38;;;;;;;1.67;0.98;;;;;;;;;;5031329;28;20449;-58
2023/03/16 04:05:04;;;;;;;2.92;1.30;;;;;;;;;;5031607;28;20333;-58
2023/03/16 04:07:30;;;;;;;2.42;0.82;;;;;;;;;;5031577;28;20505;-58
2023/03/16 04:09:56;;;;;;;1.98;0.90;;;;;;;;;;5031188;28;20026;-58
2023/03/16 04:12:23;;;;;;;2.35;1.10;;;;;;;;;;5031548;28;20033;-58
2023/03/16 04:14:50;;;;;;;1.90;1.00;;;;;;;;;;5031702;28;20034;-59
2023/03/16 04:17:16;;;;;;;3.10;1.10;;;;;;;;;;5031419;28;20041;-58
2023/03/16 04:19:42;;;;;;;5.30;1.27;;;;;;;;;;5031804;28;20092;-59
2023/03/16 04:22:08;;;;;;;1.48;0.90;;;;;;;;;;5031475;28;20037;-59
2023/03/16 04:24:34;;;;;;;2.10;1.20;;;;;;;;;;5030715;28;20029;-58
2023/03/16 04:27:02;;;;;;;2.78;1.35;;;;;;;;;;5031372;28;20087;-59
2023/03/16 04:29:27;;;;;;;3.13;0.80;;;;;;;;;;5031189;28;20049;-59
2023/03/16 04:31:54;;;;;;;3.78;1.77;;;;;;;;;;5031405;28;20061;-59
2023/03/16 04:34:23;;;;;;;3.42;1.20;;;;;;;;;;5031015;28;20017;-60
2023/03/16 04:36:53;;;;;;;2.85;1.35;;;;;;;;;;5030804;28;20041;-59
2023/03/16 04:39:22;;;;;;;1.70;1.13;;;;;;;;;;5030990;28;20482;-59
2023/03/16 04:41:48;;;;;;;3.70;1.50;;;;;;;;;;5030837;28;20036;-59
2023/03/16 04:44:14;;;;;;;2.53;1.30;;;;;;;;;;5031444;28;20475;-59
2023/03/16 04:46:40;;;;;;;3.92;1.30;;;;;;;;;;5031510;28;20033;-59
2023/03/16 04:49:08;;;;;;;3.55;1.00;;;;;;;;;;5030967;28;20431;-59
2023/03/16 04:51:34;;;;;;;2.15;0.90;;;;;;;;;;5030510;28;20897;-58
2023/03/16 04:54:00;;;;;;;1.52;1.00;;;;;;;;;;5031074;28;20028;-59
2023/03/16 04:56:26;;;;;;;2.75;1.27;;;;;;;;;;5030680;28;20410;-59
2023/03/16 04:58:52;;;;;;;2.30;1.00;;;;;;;;;;5031024;28;20047;-59
2023/03/16 05:01:18;;;;;;;1.92;1.00;;;;;;;;;;5030716;28;20032;-58
2023/03/16 05:03:44;;;;;;;1.88;1.10;;;;;;;;;;5030848;28;20021;-59
2023/03/16 05:06:10;;;;;;;2.20;1.20;;;;;;;;;;5030447;28;20056;-59
2023/03/16 05:08:36;;;;;;;3.17;1.55;;;;;;;;;;5030521;28;20446;-59
2023/03/16 05:11:02;;;;;;;1.88;0.95;;;;;;;;;;5030493;28;20044;-59
2023/03/16 05:13:29;;;;;;;2.28;1.13;;;;;;;;;;5030491;28;20028;-59
2023/03/16 05:15:55;;;;;;;1.83;1.05;;;;;;;;;;5030713;28;20120;-59
2023/03/16 05:18:21;;;;;;;1.80;1.10;;;;;;;;;;5030497;28;20554;-59
2023/03/16 05:20:51;;;;;;;2.75;1.10;;;;;;;;;;5030914;28;20092;-59
2023/03/16 05:23:17;;;;;;;1.83;0.93;;;;;;;;;;5030259;28;20022;-59
2023/03/16 05:25:43;;;;;;;3.10;0.98;;;;;;;;;;5031042;28;20188;-59
2023/03/16 05:28:09;;;;;;;2.28;1.00;;;;;;;;;;5030807;28;20393;-59
2023/03/16 05:30:35;;;;;;;1.85;0.90;;;;;;;;;;5030305;28;20037;-59
2023/03/16 05:33:01;;;;;;;2.35;1.17;;;;;;;;;;5030466;28;20030;-59
2023/03/16 05:35:27;;;;;;;2.92;1.05;;;;;;;;;;5030453;28;20037;-59
2023/03/16 05:37:53;;;;;;;2.03;1.30;;;;;;;;;;5030396;28;20033;-59
2023/03/16 05:40:21;;;;;;;1.45;0.80;;;;;;;;;;5030346;28;20022;-59
2023/03/16 05:42:48;;;;;;;1.85;1.00;;;;;;;;;;5030605;28;20061;-59
2023/03/16 05:45:15;;;;;;;1.95;1.10;;;;;;;;;;5030302;28;20114;-58
2023/03/16 05:47:42;;;;;;;1.63;0.90;;;;;;;;;;5030905;28;20026;-59
2023/03/16 05:50:10;;;;;;;2.15;0.90;;;;;;;;;;5030552;28;20480;-59
2023/03/16 05:52:36;;;;;;;2.05;0.95;;;;;;;;;;5031161;28;20042;-59
2023/03/16 05:55:02;;;;;;;1.63;1.08;;;;;;;;;;5034220;28;20438;-59
2023/03/16 05:57:28;;;;;;;2.85;1.10;;;;;;;;;;5033972;28;20038;-58
2023/03/16 05:59:54;;;;;;;2.58;1.10;;;;;;;;;;5034087;28;20437;-59
2023/03/16 06:02:20;;;;;;;2.40;1.20;;;;;;;;;;5033396;28;20037;-59
2023/03/16 06:04:46;;;;;;;1.90;1.00;;;;;;;;;;5034214;28;20458;-59
2023/03/16 06:07:12;;;;;;;3.92;1.40;;;;;;;;;;5034450;28;20485;-59
2023/03/16 06:09:38;;;;;;;1.90;0.90;;;;;;;;;;5033789;28;20036;-59
2023/03/16 06:12:04;;;;;;;2.33;1.00;;;;;;;;;;5032634;28;20893;-59
2023/03/16 06:14:30;;;;;;;1.27;0.80;;;;;;;;;;5033161;28;20025;-59
2023/03/16 06:16:56;;;;;;;2.10;1.00;;;;;;;;;;5034044;28;20486;-59
2023/03/16 06:19:22;;;;;;;2.22;1.17;;;;;;;;;;5033763;28;20112;-59
2023/03/16 06:21:48;;;;;;;1.60;1.00;;;;;;;;;;5032829;28;20563;-59
2023/03/16 06:24:14;;;;;;;2.78;1.08;;;;;;;;;;5037085;28;20018;-59
2023/03/16 06:26:40;;;;;;;2.03;1.02;;;;;;;;;;5034219;28;20030;-59
2023/03/16 06:29:06;;;;;;;3.60;1.10;;;;;;;;;;5032948;28;20389;-59
2023/03/16 06:31:32;;;;;;;3.05;1.30;;;;;;;;;;5033725;28;20033;-59
2023/03/16 06:33:59;;;;;;;2.58;0.85;;;;;;;;;;5032846;28;20029;-59
2023/03/16 06:36:25;;;;;;;2.05;1.10;;;;;;;;;;5033285;28;20485;-59
2023/03/16 06:38:51;;;;;;;1.45;1.13;;;;;;;;;;5033741;28;20022;-59
2023/03/16 06:41:17;;;;;;;1.65;0.90;;;;;;;;;;5033406;28;20402;-58
2023/03/16 06:43:43;;;;;;;4.78;1.13;;;;;;;;;;5033134;28;20017;-59
2023/03/16 06:46:10;;;;;;;4.72;1.10;;;;;;;;;;5032007;28;20037;-60
2023/03/16 06:48:36;;;;;;;2.40;1.08;;;;;;;;;;5049864;28;20503;-58
2023/03/16 06:51:02;;;;;;;2.28;0.80;;;;;;;;;;5053212;28;20029;-60
2023/03/16 06:53:28;;;;;;;3.42;1.08;;;;;;;;;;5047558;28;20028;-61
2023/03/16 06:55:54;;;;;;;6.40;1.08;;;;;;;;;;5040845;28;20060;-59
2023/03/16 06:58:20;;;;;;;4.70;1.17;;;;;;;;;;5052622;28;20473;-59
2023/03/16 07:00:46;;;;;;;1.85;0.80;;;;;;;;;;5036595;28;20439;-60
2023/03/16 07:03:12;;;;;;;2.53;1.27;;;;;;;;;;5032812;28;20029;-59
2023/03/16 07:05:38;;;;;;;3.50;0.90;;;;;;;;;;5032585;28;20033;-59
2023/03/16 07:08:04;;;;;;;4.50;1.17;;;;;;;;;;5032181;28;20021;-59
2023/03/16 07:10:31;;;;;;;2.95;1.20;;;;;;;;;;5038227;28;20045;-60
2023/03/16 07:12:57;;;;;;;2.30;1.38;;;;;;;;;;5040469;28;20127;-59
2023/03/16 07:15:25;;;;;;;2.60;1.00;;;;;;;;;;5032301;28;20041;-60
2023/03/16 07:17:51;;;;;;;1.83;0.98;;;;;;;;;;5032456;28;20092;-60
2023/03/16 07:20:17;;;;;;;3.00;1.02;;;;;;;;;;5032020;28;20529;-60
2023/03/16 07:22:43;;;;;;;2.78;1.05;;;;;;;;;;5032304;28;20375;-59
2023/03/16 07:25:10;;;;;;;2.67;0.90;;;;;;;;;;5034987;28;20439;-59
2023/03/16 07:27:37;;;;;;;4.10;0.95;;;;;;;;;;5045964;28;20029;-59
2023/03/16 07:30:04;;;;;;;2.60;0.93;;;;;;;;;;5031334;28;20037;-59
2023/03/16 07:32:31;;;;;;;3.17;1.20;;;;;;;;;;5030862;28;20024;-60
2023/03/16 07:34:57;;;;;;;3.10;1.20;;;;;;;;;;5031604;28;20037;-59
2023/03/16 07:37:24;;;;;;;2.17;0.90;;;;;;;;;;5032574;28;20038;-60
2023/03/16 07:39:50;;;;;;;1.92;0.77;;;;;;;;;;5052573;28;20029;-59
2023/03/16 07:42:16;;;;;;;3.05;1.00;;;;;;;;;;5045792;28;20061;-59
2023/03/16 07:44:42;;;;;;;5.10;0.95;;;;;;;;;;5031569;28;20119;-59
2023/03/16 07:47:11;;;;;;;2.38;1.08;;;;;;;;;;5032155;28;20037;-60
2023/03/16 07:49:37;;;;;;;1.88;1.05;;;;;;;;;;5031469;28;20061;-60
2023/03/16 07:52:03;;;;;;;2.28;0.93;;;;;;;;;;5051973;28;20479;-60
2023/03/16 07:54:29;;;;;;;2.33;1.05;;;;;;;;;;5044443;28;20044;-59
2023/03/16 07:56:55;;;;;;;5.40;1.20;;;;;;;;;;5032233;28;20033;-59
2023/03/16 07:59:21;;;;;;;3.10;1.30;;;;;;;;;;5031620;28;20493;-59
2023/03/16 08:01:47;;;;;;;3.15;1.20;;;;;;;;;;5031898;28;20030;-59
2023/03/16 08:04:13;;;;;;;4.43;1.20;;;;;;;;;;5030992;28;20375;-59
2023/03/16 08:06:41;;;;;;;3.13;1.08;;;;;;;;;;5030851;28;20106;-60
2023/03/16 08:09:07;;;;;;;2.60;1.02;;;;;;;;;;5031513;28;20035;-60
2023/03/16 08:11:33;;;;;;;2.80;0.75;;;;;;;;;;5031572;28;20025;-60
2023/03/16 08:13:59;;;;;;;2.35;1.58;;;;;;;;;;5031939;28;20049;-60
2023/03/16 08:16:26;;;;;;;2.67;1.13;;;;;;;;;;5030669;28;20513;-60
2023/03/16 08:18:52;;;;;;;3.47;1.10;;;;;;;;;;5030401;28;20022;-60
2023/03/16 08:21:18;;;;;;;2.25;0.90;;;;;;;;;;5030641;28;20035;-60
2023/03/16 08:23:49;;;;;;;2.72;0.98;;;;;;;;;;5031061;28;20100;-60
2023/03/16 08:26:16;;;;;;;7.55;1.40;;;;;;;;;;5031066;28;20095;-60
2023/03/16 08:28:44;;;;;;;3.17;1.10;;;;;;;;;;5031504;28;20104;-60
2023/03/16 08:31:11;;;;;;;3.13;1.30;;;;;;;;;;5031677;28;20120;-60
2023/03/16 08:33:37;;;;;;;3.65;0.90;;;;;;;;;;5031124;28;20104;-60
2023/03/16 08:36:05;;;;;;;1.63;0.93;;;;;;;;;;5031333;28;20041;-60
2023/03/16 08:38:32;;;;;;;3.30;0.85;;;;;;;;;;5031314;28;20029;-59
2023/03/16 08:40:59;;;;;;;3.05;1.40;;;;;;;;;;5031630;28;20120;-60
2023/03/16 08:43:28;;;;;;;3.33;0.85;;;;;;;;;;5030829;28;20021;-60
2023/03/16 08:45:54;;;;;;;3.40;0.85;;;;;;;;;;5031368;28;20053;-60
2023/03/16 08:48:21;;;;;;;2.92;1.10;;;;;;;;;;5031065;28;20444;-60
2023/03/16 08:50:47;;;;;;;3.83;1.10;;;;;;;;;;5031227;28;20029;-60
2023/03/16 08:53:14;;;;;;;2.28;1.17;;;;;;;;;;5031442;28;20482;-60
2023/03/16 08:55:40;;;;;;;2.15;1.30;;;;;;;;;;5031569;28;20037;-59
2023/03/16 08:58:07;;;;;;;3.75;1.13;;;;;;;;;;5030832;28;20028;-59
2023/03/16 09:00:34;;;;;;;3.03;0.80;;;;;;;;;;5030941;28;20025;-59
2023/03/16 09:03:01;;;;;;;3.35;1.05;;;;;;;;;;5031140;28;20025;-59
2023/03/16 09:05:28;;;;;;;2.88;0.95;;;;;;;;;;5030881;28;20017;-60
2023/03/16 09:07:54;;;;;;;2.05;0.90;;;;;;;;;;5029326;28;20025;-60
2023/03/16 09:10:21;;;;;;;2.05;1.02;;;;;;;;;;5030442;28;20025;-59
2023/03/16 09:12:48;;;;;;;2.88;0.95;;;;;;;;;;5030229;28;20408;-59
2023/03/16 09:15:14;;;;;;;1.98;1.05;;;;;;;;;;5029864;28;20481;-59
2023/03/16 09:17:44;;;;;;;3.55;1.02;;;;;;;;;;5047083;28;20029;-59
2023/03/16 09:20:11;;;;;;;2.75;0.93;;;;;;;;;;5037824;28;20083;-59
2023/03/16 09:22:37;;;;;;;3.55;1.10;;;;;;;;;;5043423;28;20028;-59
2023/03/16 09:25:07;;;;;;;1.70;0.85;;;;;;;;;;5047504;28;20017;-59
2023/03/16 09:27:35;;;;;;;2.08;0.90;;;;;;;;;;5033313;28;20108;-59
2023/03/16 09:30:02;;;;;;;2.08;0.93;;;;;;;;;;5034078;28;20026;-60
2023/03/16 09:32:29;;;;;;;2.33;0.93;;;;;;;;;;5034694;28;20030;-60
2023/03/16 09:34:55;;;;;;;1.75;0.70;;;;;;;;;;5033780;28;20521;-59
2023/03/16 09:37:22;;;;;;;2.75;1.05;;;;;;;;;;5038157;28;20455;-59
2023/03/16 09:39:49;;;;;;;3.22;0.95;;;;;;;;;;5054769;28;20025;-60
2023/03/16 09:42:24;;;;;;;2.60;0.93;;;;;;;;;;5036013;28;20061;-60
2023/03/16 09:44:56;;;;;;;2.30;0.80;;;;;;;;;;5033980;28;20033;-59
2023/03/16 09:47:25;;;;;;;3.70;1.02;;;;;;;;;;5026785;28;20029;-60
2023/03/16 09:49:51;;;;;;;2.05;0.85;;;;;;;;;;5034688;28;20104;-60
2023/03/16 09:52:17;;;;;;;2.28;0.90;;;;;;;;;;5034362;28;20474;-61
2023/03/16 09:54:56;;;;;;;2.10;1.20;;;;;;;;;;5034792;28;20082;-59
2023/03/16 09:57:28;;;;;;;2.35;1.10;;;;;;;;;;5034404;28;20523;-59
2023/03/16 09:59:55;;;;;;;4.53;1.23;;;;;;;;;;5034433;28;20486;-60
2023/03/16 10:02:41;;;;;;;3.03;1.05;;;;;;;;;;5033466;28;20036;-59
2023/03/16 10:05:11;;;;;;;2.30;1.08;;;;;;;;;;5032887;28;20026;-59
2023/03/16 10:07:56;;;;;;;4.78;1.30;;;;;;;;;;5033744;28;20030;-59
2023/03/16 10:10:25;;;;;;;2.38;1.20;;;;;;;;;;5033667;28;20036;-59
2023/03/16 10:12:52;;;;;;;1.92;0.95;;;;;;;;;;5033968;28;20402;-59
2023/03/16 10:15:20;;;;;;;1.73;0.82;;;;;;;;;;5032332;28;20110;-59
2023/03/16 10:17:51;;;;;;;2.15;0.98;;;;;;;;;;5030952;28;20025;-59
2023/03/16 10:20:19;;;;;;;3.00;1.13;;;;;;;;;;5034018;28;20452;-59
2023/03/16 10:22:46;;;;;;;3.03;1.15;;;;;;;;;;5033058;28;20025;-60
2023/03/16 10:25:18;;;;;;;2.58;1.35;;;;;;;;;;5033987;28;20033;-59
2023/03/16 10:27:45;;;;;;;2.60;1.27;;;;;;;;;;5033985;28;20037;-59
2023/03/16 10:30:26;;;;;;;3.20;1.35;;;;;;;;;;5034144;28;20037;-60
2023/03/16 10:32:52;;;;;;;1.77;0.85;;;;;;;;;;5033738;28;20025;-59
2023/03/16 10:35:37;;;;;;;1.90;1.00;;;;;;;;;;5033675;28;20044;-59
2023/03/16 10:38:03;;;;;;;3.95;1.60;;;;;;;;;;5032567;28;20029;-59
2023/03/16 10:40:37;;;;;;;1.80;0.85;;;;;;;;;;5032885;28;20516;-59
2023/03/16 10:43:13;;;;;;;1.80;0.90;;;;;;;;;;5033568;28;20496;-59
2023/03/16 10:45:39;;;;;;;2.42;1.13;;;;;;;;;;5033882;28;20033;-59
2023/03/16 10:48:13;;;;;;;4.05;0.82;;;;;;;;;;5033693;28;20075;-59
2023/03/16 10:50:40;;;;;;;2.17;0.82;;;;;;;;;;5033510;28;20029;-59
2023/03/16 10:53:15;;;;;;;2.67;1.00;;;;;;;;;;5033101;28;20112;-59
2023/03/16 10:55:42;;;;;;;3.00;1.10;;;;;;;;;;5033747;28;20037;-59
2023/03/16 10:58:08;;;;;;;2.03;0.98;;;;;;;;;;5033452;28;20034;-59
2023/03/16 11:00:42;;;;;;;2.80;1.00;;;;;;;;;;5033142;28;20044;-60
2023/03/16 11:03:26;;;;;;;3.00;0.90;;;;;;;;;;5033363;28;20017;-59
2023/03/16 11:05:59;;;;;;;2.30;1.10;;;;;;;;;;5032891;28;20033;-59
2023/03/16 11:08:26;;;;;;;2.17;1.08;;;;;;;;;;5032604;28;20029;-59
2023/03/16 11:10:57;;;;;;;2.65;1.10;;;;;;;;;;5033215;28;20037;-59
2023/03/16 11:13:25;;;;;;;3.83;1.30;;;;;;;;;;5032978;28;20112;-59
2023/03/16 11:16:01;;;;;;;2.30;1.10;;;;;;;;;;5032703;28;20037;-60
2023/03/16 11:18:32;;;;;;;2.78;1.20;;;;;;;;;;5032172;28;20034;-59
2023/03/16 11:21:01;;;;;;;1.63;1.02;;;;;;;;;;5033004;28;20060;-59
2023/03/16 11:23:38;;;;;;;1.65;1.00;;;;;;;;;;5032815;28;20049;-60
2023/03/16 11:26:07;;;;;;;4.10;1.20;;;;;;;;;;5032893;28;20568;-60
2023/03/16 11:28:43;;;;;;;2.40;1.05;;;;;;;;;;5032593;28;20417;-60
2023/03/16 11:31:27;;;;;;;2.55;0.80;;;;;;;;;;5032709;28;20027;-59
2023/03/16 11:33:56;;;;;;;2.45;1.10;;;;;;;;;;5032233;28;20022;-60
2023/03/16 11:36:26;;;;;;;1.90;0.98;;;;;;;;;;5032372;28;20037;-60
2023/03/16 11:39:11;;;;;;;2.67;0.95;;;;;;;;;;5032247;28;20028;-60
2023/03/16 11:41:44;;;;;;;1.95;1.00;;;;;;;;;;5032190;28;20029;-60
2023/03/16 11:44:19;;;;;;;3.38;0.93;;;;;;;;;;5032349;28;20037;-60
2023/03/16 11:46:56;;;;;;;4.63;1.08;;;;;;;;;;5032447;28;20448;-60
2023/03/16 11:49:28;;;;;;;3.95;1.45;;;;;;;;;;5031828;28;20068;-60
2023/03/16 11:51:55;;;;;;;1.80;0.90;;;;;;;;;;5031940;28;20096;-60
2023/03/16 11:54:34;;;;;;;3.45;1.30;;;;;;;;;;5030558;28;20048;-60
2023/03/16 11:57:06;;;;;;;3.80;1.30;;;;;;;;;;5032262;28;20537;-60
2023/03/16 11:59:41;;;;;;;1.98;1.23;;;;;;;;;;5031506;28;20512;-60
2023/03/16 12:02:27;;;;;;;1.90;1.20;;;;;;;;;;5032136;28;20036;-60
2023/03/16 12:05:01;;;;;;;4.13;1.70;;;;;;;;;;5031981;28;20037;-60
2023/03/16 12:07:27;;;;;;;2.17;1.42;;;;;;;;;;5031572;28;20478;-61
2023/03/16 12:10:02;;;;;;;3.25;1.50;;;;;;;;;;5031711;28;20069;-60
2023/03/16 12:12:37;;;;;;;;;;;;;;;;;;5129328;27;20399;-59
2023/03/16 12:15:13;;;;;;;3.05;1.65;;;;;;;;;;5129436;28;19908;-59
2023/03/16 12:17:40;;;;;;;2.67;1.58;;;;;;;;;;5129291;27;20020;-59
2023/03/16 12:20:22;;;;;;;2.10;1.23;;;;;;;;;;5128192;27;20531;-61
2023/03/16 12:22:58;;;;;;;3.25;1.38;;;;;;;;;;5128991;27;20437;-58
2023/03/16 12:25:30;;;;;;;2.83;1.40;;;;;;;;;;5129084;27;20055;-60
2023/03/16 12:27:59;;;;;;;4.70;1.60;;;;;;;;;;5127212;27;20030;-59
2023/03/16 12:30:38;;;;;;;4.93;1.75;;;;;;;;;;5128792;27;20548;-59
2023/03/16 12:33:20;;;;;;;3.85;1.85;;;;;;;;;;5129253;27;20796;-59
2023/03/16 12:35:49;;;;;;;4.50;1.83;;;;;;;;;;5128979;27;20023;-59
2023/03/16 12:38:21;;;;;;;3.72;1.77;;;;;;;;;;5127358;27;20391;-59
2023/03/16 12:40:52;;;;;;;5.07;2.00;;;;;;;;;;5128101;27;20035;-59
2023/03/16 12:43:19;;;;;;;3.92;2.03;;;;;;;;;;5106756;28;20166;-58
2023/03/16 12:45:51;;;;;;;6.82;2.13;;;;;;;;;;5108258;28;20023;-59
2023/03/16 12:48:17;;;;;;;4.63;1.70;;;;;;;;;;5103809;28;20024;-59
2023/03/16 12:50:50;;;;;;;3.90;1.98;;;;;;;;;;5107202;28;20027;-59
2023/03/16 12:53:27;;;;;;;3.90;1.83;;;;;;;;;;5103727;28;20028;-59
2023/03/16 12:55:55;;;;;;;3.78;1.80;;;;;;;;;;5106826;28;20050;-58
2023/03/16 12:58:22;;;;;;;3.63;1.70;;;;;;;;;;5106584;28;20031;-59
2023/03/16 13:00:55;;;;;;;3.95;1.83;;;;;;;;;;5107810;28;20039;-59
2023/03/16 13:03:22;;;;;;;4.55;2.00;;;;;;;;;;5107721;28;20028;-59
2023/03/16 13:05:54;;;;;;;4.93;1.90;;;;;;;;;;5108140;28;20035;-59
2023/03/16 13:08:20;;;;;;;4.43;1.65;;;;;;;;;;5107751;28;20097;-59
2023/03/16 13:10:59;;;;;;;4.22;1.83;;;;;;;;;;5107729;28;20123;-59
2023/03/16 13:13:26;;;;;;;4.13;1.88;;;;;;;;;;5108360;28;20107;-59
2023/03/16 13:16:02;;;;;;;4.35;1.92;;;;;;;;;;5108068;28;20081;-59
2023/03/16 13:18:34;;;;;;;4.13;1.95;;;;;;;;;;5107492;28;20028;-59
2023/03/16 13:21:01;;;;;;;3.95;1.83;;;;;;;;;;5107576;28;20027;-60
2023/03/16 13:23:45;;;;;;;4.63;1.73;;;;;;;;;;5096579;28;20039;-58
2023/03/16 13:26:22;;;;;;;2.28;1.35;;;;;;;;;;5101577;28;20032;-58
2023/03/16 13:28:52;;;;;;;3.55;1.65;;;;;;;;;;5114393;28;20027;-58
2023/03/16 13:31:20;;;;;;;2.88;1.60;;;;;;;;;;5106860;28;20050;-59
2023/03/16 13:33:46;;;;;;;5.22;1.90;;;;;;;;;;5093904;28;20545;-59
2023/03/16 13:36:13;;;;;;;4.20;1.45;;;;;;;;;;5094142;28;20059;-58
2023/03/16 13:38:40;;;;;;;3.35;1.60;;;;;;;;;;5094169;28;20028;-59
2023/03/16 13:41:10;;;;;;;4.47;1.85;;;;;;;;;;5093724;28;20476;-59
2023/03/16 13:43:38;;;;;;;3.63;1.35;;;;;;;;;;5094550;28;20024;-59
2023/03/16 13:46:17;;;;;;;2.97;1.40;;;;;;;;;;5093629;28;20032;-59
2023/03/16 13:48:44;;;;;;;4.68;1.80;;;;;;;;;;5093961;28;20028;-59
2023/03/16 13:51:16;;;;;;;3.88;1.98;;;;;;;;;;5093810;28;20035;-60
2023/03/16 13:53:42;;;;;;;3.13;1.27;;;;;;;;;;5093753;28;20024;-59
2023/03/16 13:56:12;;;;;;;3.28;1.52;;;;;;;;;;5093418;28;20043;-59
2023/03/16 13:58:39;;;;;;;1.92;1.30;;;;;;;;;;5093869;28;20529;-59
2023/03/16 14:01:11;;;;;;;3.08;1.50;;;;;;;;;;5093312;28;20028;-59
2023/03/16 14:03:38;;;;;;;3.72;1.60;;;;;;;;;;5093077;28;20095;-59
2023/03/16 14:06:05;;;;;;;3.30;1.23;;;;;;;;;;5093446;28;20965;-61
2023/03/16 14:08:31;;;;;;;2.92;1.35;;;;;;;;;;5093155;28;20066;-60
2023/03/16 14:10:57;;;;;;;4.47;1.48;;;;;;;;;;5092920;28;20047;-60
2023/03/16 14:13:32;;;;;;;2.03;1.13;;;;;;;;;;5093586;28;20052;-60
2023/03/16 14:16:03;;;;;;;3.80;1.63;;;;;;;;;;5092951;28;20036;-60
2023/03/16 14:18:35;;;;;;;4.35;1.83;;;;;;;;;;5092807;28;20016;-61
2023/03/16 14:21:05;;;;;;;3.42;1.45;;;;;;;;;;5093055;28;20024;-60
2023/03/16 14:23:34;;;;;;;3.55;1.08;;;;;;;;;;5092838;28;20024;-60
2023/03/16 14:26:02;;;;;;;2.90;1.35;;;;;;;;;;5092914;28;20039;-60
2023/03/16 14:28:30;;;;;;;4.00;1.60;;;;;;;;;;5093265;28;20032;-60
2023/03/16 14:31:04;;;;;;;2.65;1.20;;;;;;;;;;5092840;28;20062;-60
2023/03/16 14:33:32;;;;;;;2.13;1.17;;;;;;;;;;5092032;28;20055;-60
2023/03/16 14:35:59;;;;;;;2.65;1.23;;;;;;;;;;5091999;28;20047;-59
2023/03/16 14:38:32;;;;;;;2.85;1.20;;;;;;;;;;5092193;28;20418;-60
2023/03/16 14:41:03;;;;;;;2.78;1.30;;;;;;;;;;5093470;28;20027;-60
2023/03/16 14:43:31;;;;;;;2.42;1.42;;;;;;;;;;5092308;28;20024;-59
2023/03/16 14:45:58;;;;;;;1.95;1.20;;;;;;;;;;5092516;28;20539;-60
2023/03/16 14:48:24;;;;;;;2.03;1.00;;;;;;;;;;5092146;28;20111;-60
2023/03/16 14:50:55;;;;;;;3.03;1.30;;;;;;;;;;5092299;28;20032;-59